Time;durP1;ratioP1;P1;durP2;ratioP2;P2;SDS_P1;SDS_P2;PMS_P1;PMS_P2;Temp;Humidity;BMP_temperature;BMP_pressure;BME280_temperature;BME280_humidity;BME280_pressure;Samples;Min_cycle;Max_cycle;Signal;HPM_P1;HPM_P2
2023/08/03 00:02:10;;;;;;;9.77;2.40;;;19.10;99.90;;;;;;5066599;28;20788;-71
2023/08/03 00:04:55;;;;;;;10.80;2.57;;;19.00;99.90;;;;;;5070913;28;20609;-72
2023/08/03 00:07:42;;;;;;;8.40;1.90;;;19.00;99.90;;;;;;5070257;28;20444;-72
2023/08/03 00:10:28;;;;;;;10.23;2.33;;;19.00;99.90;;;;;;5067351;28;20484;-71
2023/08/03 00:13:14;;;;;;;10.30;1.77;;;19.00;99.90;;;;;;5068413;28;20477;-71
2023/08/03 00:16:00;;;;;;;14.60;2.10;;;19.00;99.90;;;;;;5063952;28;20780;-72
2023/08/03 00:18:45;;;;;;;7.60;2.33;;;19.00;99.90;;;;;;5060219;28;20426;-71
2023/08/03 00:21:30;;;;;;;9.90;2.23;;;19.00;99.90;;;;;;5070372;28;20444;-72
2023/08/03 00:24:17;;;;;;;4.77;1.50;;;19.00;99.90;;;;;;5073151;28;20414;-71
2023/08/03 00:27:03;;;;;;;11.97;2.70;;;19.10;99.90;;;;;;5065239;28;20450;-72
2023/08/03 00:29:48;;;;;;;5.07;1.33;;;19.10;99.90;;;;;;5066224;28;20953;-71
2023/08/03 00:32:34;;;;;;;7.10;2.00;;;19.10;99.90;;;;;;5069254;28;20471;-72
2023/08/03 00:35:19;;;;;;;11.37;2.77;;;19.10;99.90;;;;;;5069011;28;20414;-71
2023/08/03 00:38:05;;;;;;;7.37;2.43;;;19.10;99.90;;;;;;5068131;28;20421;-71
2023/08/03 00:40:52;;;;;;;8.07;2.60;;;19.10;99.90;;;;;;5071087;28;20462;-71
2023/08/03 00:43:38;;;;;;;5.93;2.00;;;19.10;99.90;;;;;;5066000;28;20810;-71
2023/08/03 00:46:23;;;;;;;11.33;2.40;;;19.10;99.90;;;;;;5069210;28;20438;-71
2023/08/03 00:49:09;;;;;;;6.80;1.80;;;19.10;99.90;;;;;;5065414;28;20446;-70
2023/08/03 00:51:55;;;;;;;5.77;2.03;;;19.10;99.90;;;;;;5062948;28;20532;-71
2023/08/03 00:54:40;;;;;;;11.40;1.90;;;19.10;99.90;;;;;;5066169;28;20530;-71
2023/08/03 00:57:28;;;;;;;8.20;1.73;;;19.10;99.90;;;;;;5065246;28;20425;-71
2023/08/03 01:00:14;;;;;;;6.23;1.43;;;19.10;99.90;;;;;;5068692;28;20422;-71
2023/08/03 01:02:59;;;;;;;5.90;1.60;;;19.10;99.90;;;;;;5069686;28;20462;-71
2023/08/03 01:05:45;;;;;;;5.03;1.70;;;19.10;99.90;;;;;;5072343;28;20554;-71
2023/08/03 01:08:30;;;;;;;12.47;2.10;;;19.10;99.90;;;;;;5063006;28;20519;-71
2023/08/03 01:11:16;;;;;;;7.97;1.67;;;19.00;99.90;;;;;;5070574;28;20440;-71
2023/08/03 01:14:03;;;;;;;6.00;1.90;;;19.00;99.90;;;;;;5069299;28;20555;-72
2023/08/03 01:16:48;;;;;;;5.67;1.80;;;19.00;99.90;;;;;;5063645;28;20955;-71
2023/08/03 01:19:34;;;;;;;13.57;2.07;;;19.00;99.90;;;;;;5065314;28;20943;-71
2023/08/03 01:22:20;;;;;;;7.73;2.00;;;19.00;99.90;;;;;;5064477;28;20453;-72
2023/08/03 01:25:07;;;;;;;16.00;3.00;;;19.00;99.90;;;;;;5064573;28;20942;-71
2023/08/03 01:27:53;;;;;;;7.67;2.90;;;19.00;99.90;;;;;;5065580;28;20448;-71
2023/08/03 01:30:38;;;;;;;12.90;2.13;;;19.10;99.90;;;;;;5071671;28;20433;-71
2023/08/03 01:33:24;;;;;;;10.33;1.77;;;19.10;99.90;;;;;;5066310;28;20966;-72
2023/08/03 01:36:09;;;;;;;6.27;1.90;;;19.00;99.90;;;;;;5070567;28;20410;-71
2023/08/03 01:38:55;;;;;;;10.00;2.90;;;19.00;99.90;;;;;;5070525;28;20548;-72
2023/08/03 01:41:42;;;;;;;8.13;1.80;;;19.00;99.90;;;;;;5076884;28;20455;-71
2023/08/03 01:44:29;;;;;;;11.20;2.00;;;19.00;99.90;;;;;;5067699;28;20442;-71
2023/08/03 01:47:15;;;;;;;7.57;1.53;;;19.00;99.90;;;;;;5065811;28;20953;-71
2023/08/03 01:50:00;;;;;;;4.77;1.43;;;19.00;99.90;;;;;;5061045;28;20421;-72
2023/08/03 01:52:48;;;;;;;7.57;1.63;;;19.10;99.90;;;;;;5063264;28;20452;-71
2023/08/03 01:55:33;;;;;;;10.13;3.20;;;19.10;99.90;;;;;;5068400;28;20414;-71
2023/08/03 01:58:20;;;;;;;11.10;3.73;;;19.00;99.90;;;;;;5070072;28;20410;-71
2023/08/03 02:01:05;;;;;;;8.60;1.43;;;19.00;99.90;;;;;;5067715;28;20434;-71
2023/08/03 02:03:50;;;;;;;5.83;1.73;;;19.00;99.90;;;;;;5066892;28;20509;-71
2023/08/03 02:06:37;;;;;;;16.07;3.47;;;19.00;99.90;;;;;;5069646;28;20454;-71
2023/08/03 02:09:22;;;;;;;6.90;1.70;;;19.00;99.90;;;;;;5065097;28;20481;-71
2023/08/03 02:12:08;;;;;;;7.43;1.77;;;19.00;99.90;;;;;;5068318;28;20771;-71
2023/08/03 02:14:55;;;;;;;6.00;1.47;;;19.00;99.90;;;;;;5072175;28;20448;-71
2023/08/03 02:17:41;;;;;;;4.10;1.30;;;19.00;99.90;;;;;;5066054;28;20989;-72
2023/08/03 02:20:27;;;;;;;6.87;1.63;;;18.90;99.90;;;;;;5069134;28;20446;-72
2023/08/03 02:23:12;;;;;;;6.50;1.43;;;18.90;99.90;;;;;;5063099;28;20433;-72
2023/08/03 02:25:58;;;;;;;6.60;1.40;;;18.80;99.90;;;;;;5075072;28;20797;-71
2023/08/03 02:28:43;;;;;;;6.03;1.90;;;18.80;99.90;;;;;;5070953;28;20434;-71
2023/08/03 02:31:30;;;;;;;6.07;1.37;;;18.80;99.90;;;;;;5072158;28;20909;-72
2023/08/03 02:34:15;;;;;;;3.70;1.33;;;18.90;99.90;;;;;;5072756;28;20448;-72
2023/08/03 02:37:01;;;;;;;4.57;1.20;;;18.80;99.90;;;;;;5070307;28;21223;-72
2023/08/03 02:39:46;;;;;;;5.40;1.30;;;18.80;99.90;;;;;;5073345;28;20488;-72
2023/08/03 02:42:32;;;;;;;3.80;1.27;;;18.70;99.90;;;;;;5072808;28;20509;-71
2023/08/03 02:45:17;;;;;;;6.40;1.07;;;18.80;99.90;;;;;;5071465;28;20426;-71
2023/08/03 02:48:05;;;;;;;5.80;1.00;;;18.80;99.90;;;;;;5071155;28;20941;-70
2023/08/03 02:50:50;;;;;;;41.67;4.13;;;18.70;99.90;;;;;;5067383;28;20505;-71
2023/08/03 02:53:35;;;;;;;4.80;1.33;;;18.70;99.90;;;;;;5077171;28;20971;-70
2023/08/03 02:56:21;;;;;;;7.80;0.80;;;18.70;99.90;;;;;;5069812;28;20417;-70
2023/08/03 02:59:07;;;;;;;8.50;1.33;;;18.70;99.90;;;;;;5076495;28;20574;-71
2023/08/03 03:01:52;;;;;;;7.63;1.10;;;18.70;99.90;;;;;;5067591;28;20479;-71
2023/08/03 03:04:39;;;;;;;9.27;1.13;;;18.70;99.90;;;;;;5068545;28;20488;-71
2023/08/03 03:07:24;;;;;;;3.40;1.00;;;18.70;99.90;;;;;;5069168;28;20455;-70
2023/08/03 03:10:10;;;;;;;4.77;1.30;;;18.60;99.90;;;;;;5067500;28;20414;-70
2023/08/03 03:12:55;;;;;;;2.90;0.83;;;18.60;99.90;;;;;;5068556;28;20450;-70
2023/08/03 03:15:41;;;;;;;5.80;1.40;;;18.60;99.90;;;;;;5070608;28;20442;-70
2023/08/03 03:18:27;;;;;;;2.60;1.00;;;18.50;99.90;;;;;;5073167;28;20812;-70
2023/08/03 03:21:14;;;;;;;5.10;1.43;;;18.50;99.90;;;;;;5067925;28;20532;-71
2023/08/03 03:23:59;;;;;;;4.37;1.00;;;18.50;99.90;;;;;;5067752;28;20460;-71
2023/08/03 03:26:45;;;;;;;4.70;0.80;;;18.40;99.90;;;;;;5070916;28;20425;-70
2023/08/03 03:29:30;;;;;;;1.90;0.70;;;18.40;99.90;;;;;;5071804;28;20443;-70
2023/08/03 03:32:16;;;;;;;6.67;0.90;;;18.40;99.90;;;;;;5070060;28;20448;-70
2023/08/03 03:35:02;;;;;;;19.40;1.27;;;18.40;99.90;;;;;;5072810;28;20451;-71
2023/08/03 03:37:49;;;;;;;7.70;0.80;;;18.30;99.90;;;;;;5062343;28;20421;-70
2023/08/03 03:40:34;;;;;;;7.13;1.03;;;18.30;99.90;;;;;;5072812;28;20520;-71
2023/08/03 03:43:20;;;;;;;3.47;1.00;;;18.20;99.90;;;;;;5067219;28;20445;-71
2023/08/03 03:46:05;;;;;;;8.47;1.30;;;18.20;99.90;;;;;;5074717;28;20459;-70
2023/08/03 03:48:51;;;;;;;5.30;1.03;;;18.10;99.90;;;;;;5070720;28;20455;-70
2023/08/03 03:51:36;;;;;;;4.97;1.73;;;18.10;99.90;;;;;;5066257;28;21037;-69
2023/08/03 03:54:23;;;;;;;3.50;1.67;;;18.10;99.90;;;;;;5065578;28;20459;-71
2023/08/03 03:57:09;;;;;;;2.47;0.90;;;18.10;99.90;;;;;;5066941;28;20480;-70
2023/08/03 03:59:54;;;;;;;5.10;1.00;;;18.10;99.90;;;;;;5070605;28;20997;-71
2023/08/03 04:02:40;;;;;;;3.40;1.20;;;18.10;99.90;;;;;;5067951;28;20855;-71
2023/08/03 04:05:26;;;;;;;7.80;1.17;;;18.10;99.90;;;;;;5069086;28;20530;-71
2023/08/03 04:08:11;;;;;;;9.43;1.33;;;18.10;99.90;;;;;;5068327;28;20512;-70
2023/08/03 04:10:58;;;;;;;3.20;1.17;;;18.10;99.90;;;;;;5070881;28;20999;-70
2023/08/03 04:13:44;;;;;;;4.10;1.00;;;18.10;99.90;;;;;;5072072;28;20941;-70
2023/08/03 04:16:30;;;;;;;5.10;1.33;;;18.10;99.90;;;;;;5061425;28;20972;-70
2023/08/03 04:19:15;;;;;;;2.90;0.90;;;18.10;99.90;;;;;;5062851;28;20417;-70
2023/08/03 04:22:01;;;;;;;5.87;1.40;;;18.10;99.90;;;;;;5061773;28;20819;-71
2023/08/03 04:24:46;;;;;;;9.17;1.80;;;18.10;99.90;;;;;;5071681;28;20816;-71
2023/08/03 04:27:33;;;;;;;4.27;1.23;;;18.10;99.90;;;;;;5066411;28;20950;-70
2023/08/03 04:30:19;;;;;;;3.60;1.00;;;18.10;99.90;;;;;;5065373;28;20426;-70
2023/08/03 04:33:04;;;;;;;5.40;1.40;;;18.10;99.90;;;;;;5066158;28;20477;-71
2023/08/03 04:35:50;;;;;;;5.80;1.30;;;18.20;99.90;;;;;;5069760;28;20953;-71
2023/08/03 04:38:35;;;;;;;6.50;1.27;;;18.10;99.90;;;;;;5065464;28;20425;-70
2023/08/03 04:41:21;;;;;;;10.63;2.13;;;18.10;99.90;;;;;;5068259;28;20434;-71
2023/08/03 04:44:08;;;;;;;7.10;1.33;;;18.10;99.90;;;;;;5068543;28;20479;-71
2023/08/03 04:46:53;;;;;;;4.43;1.10;;;18.10;99.90;;;;;;5071628;28;20461;-71
2023/08/03 04:49:39;;;;;;;13.83;1.00;;;18.00;99.90;;;;;;5071902;28;20522;-71
2023/08/03 04:52:24;;;;;;;4.20;0.97;;;18.00;99.90;;;;;;5070507;28;20486;-70
2023/08/03 04:55:10;;;;;;;5.40;0.97;;;17.90;99.90;;;;;;5063245;28;20460;-70
2023/08/03 04:57:55;;;;;;;5.33;1.43;;;17.90;99.90;;;;;;5069057;28;20438;-70
2023/08/03 05:00:42;;;;;;;3.30;1.20;;;17.80;99.90;;;;;;5067605;28;20458;-70
2023/08/03 05:03:28;;;;;;;5.07;1.27;;;17.70;99.90;;;;;;5066446;28;20452;-69
2023/08/03 05:06:13;;;;;;;5.07;1.17;;;17.70;99.90;;;;;;5064889;28;20527;-70
2023/08/03 05:08:59;;;;;;;2.80;0.80;;;17.80;99.90;;;;;;5066001;28;20459;-70
2023/08/03 05:11:44;;;;;;;2.67;0.90;;;17.70;99.90;;;;;;5066570;28;20437;-70
2023/08/03 05:14:30;;;;;;;6.93;1.30;;;17.70;99.90;;;;;;5071316;28;20416;-71
2023/08/03 05:17:17;;;;;;;3.97;0.97;;;17.70;99.90;;;;;;5068963;28;20483;-70
2023/08/03 05:20:02;;;;;;;4.10;1.00;;;17.70;99.90;;;;;;5065629;28;20420;-70
2023/08/03 05:22:48;;;;;;;4.67;1.03;;;17.60;99.90;;;;;;5064206;28;20605;-70
2023/08/03 05:25:33;;;;;;;5.87;1.10;;;17.50;99.90;;;;;;5069260;28;21186;-70
2023/08/03 05:28:19;;;;;;;7.20;1.17;;;17.40;99.90;;;;;;5064355;28;20475;-71
2023/08/03 05:31:06;;;;;;;3.40;1.10;;;17.20;99.90;;;;;;5071413;28;20584;-68
2023/08/03 05:33:54;;;;;;;10.20;1.83;;;17.20;99.90;;;;;;5066410;28;20513;-70
2023/08/03 05:36:39;;;;;;;4.93;1.40;;;17.20;99.90;;;;;;5068696;28;20539;-71
2023/08/03 05:39:27;;;;;;;4.83;1.30;;;17.20;99.90;;;;;;5066391;28;21053;-71
2023/08/03 05:42:13;;;;;;;7.27;1.30;;;17.30;99.90;;;;;;5069488;28;20459;-71
2023/08/03 05:44:58;;;;;;;5.53;1.13;;;17.20;99.90;;;;;;5068421;28;20430;-70
2023/08/03 05:47:44;;;;;;;2.60;0.87;;;17.20;99.90;;;;;;5067511;28;20421;-70
2023/08/03 05:50:31;;;;;;;5.30;1.20;;;17.10;99.90;;;;;;5054466;28;20435;-71
2023/08/03 05:53:17;;;;;;;5.30;1.67;;;17.20;99.90;;;;;;5068003;28;20420;-71
2023/08/03 05:56:09;;;;;;;5.63;1.20;;;17.30;99.90;;;;;;5064147;28;20548;-70
2023/08/03 05:58:54;;;;;;;7.03;1.50;;;17.30;99.90;;;;;;5067160;28;20533;-69
2023/08/03 06:01:40;;;;;;;8.50;1.53;;;17.30;99.90;;;;;;5073972;28;20432;-70
2023/08/03 06:04:25;;;;;;;4.70;1.60;;;17.30;99.90;;;;;;5068237;28;20524;-70
2023/08/03 06:07:13;;;;;;;7.37;1.30;;;17.40;99.90;;;;;;5070352;28;20502;-70
2023/08/03 06:09:58;;;;;;;3.20;1.07;;;17.40;99.90;;;;;;5071415;28;20548;-69
2023/08/03 06:12:43;;;;;;;8.70;1.40;;;17.50;99.90;;;;;;5071327;28;20466;-70
2023/08/03 06:15:30;;;;;;;6.90;1.30;;;17.50;99.90;;;;;;5069535;28;20492;-69
2023/08/03 06:18:17;;;;;;;6.93;1.30;;;17.50;99.90;;;;;;5069587;28;20529;-70
2023/08/03 06:21:05;;;;;;;7.37;1.70;;;17.60;99.90;;;;;;5069451;28;20441;-70
2023/08/03 06:23:53;;;;;;;2.83;1.13;;;17.70;99.90;;;;;;5068709;28;20806;-70
2023/08/03 06:26:39;;;;;;;4.57;1.20;;;17.70;99.90;;;;;;5075624;28;20409;-70
2023/08/03 06:29:24;;;;;;;9.33;1.53;;;17.70;99.90;;;;;;5067974;28;20417;-69
2023/08/03 06:32:18;;;;;;;4.83;1.60;;;17.70;99.90;;;;;;5065957;28;20461;-70
2023/08/03 06:35:05;;;;;;;4.77;1.40;;;17.60;99.90;;;;;;5068164;28;20931;-70
2023/08/03 06:37:50;;;;;;;4.73;1.60;;;17.60;99.90;;;;;;5064536;28;20980;-70
2023/08/03 06:40:39;;;;;;;7.00;1.40;;;17.50;99.90;;;;;;5073031;28;20418;-70
2023/08/03 06:43:25;;;;;;;9.73;1.97;;;17.50;99.90;;;;;;5064759;28;20475;-70
2023/08/03 06:46:10;;;;;;;8.57;1.30;;;17.60;99.90;;;;;;5064567;28;20451;-70
2023/08/03 06:48:56;;;;;;;6.73;1.77;;;17.50;99.90;;;;;;5065743;28;20811;-70
2023/08/03 06:51:41;;;;;;;4.60;1.43;;;17.40;99.90;;;;;;5068728;28;20493;-70
2023/08/03 06:54:27;;;;;;;5.90;1.43;;;17.50;99.90;;;;;;5071942;28;20948;-70
2023/08/03 06:57:14;;;;;;;8.80;1.27;;;17.40;99.90;;;;;;5065650;28;20870;-70
2023/08/03 06:59:59;;;;;;;6.40;1.60;;;17.40;99.90;;;;;;5070567;28;20492;-70
2023/08/03 07:02:47;;;;;;;6.27;1.73;;;17.40;99.90;;;;;;5068152;28;20434;-70
2023/08/03 07:05:32;;;;;;;9.87;1.70;;;17.40;99.90;;;;;;5081007;28;20417;-70
2023/08/03 07:08:18;;;;;;;6.30;1.37;;;17.40;99.90;;;;;;5070390;28;20436;-70
2023/08/03 07:11:03;;;;;;;5.20;2.23;;;17.40;99.90;;;;;;5070652;28;20444;-70
2023/08/03 07:13:50;;;;;;;4.57;1.63;;;17.40;99.90;;;;;;5073426;28;20445;-70
2023/08/03 07:16:36;;;;;;;5.33;1.10;;;17.50;99.90;;;;;;5069683;28;21017;-70
2023/08/03 07:19:22;;;;;;;3.57;1.20;;;17.40;99.90;;;;;;5069654;28;20529;-70
2023/08/03 07:22:08;;;;;;;6.30;1.57;;;17.40;99.90;;;;;;5065256;28;21156;-70
2023/08/03 07:24:54;;;;;;;5.43;1.53;;;17.50;99.90;;;;;;5073099;28;20521;-70
2023/08/03 07:27:41;;;;;;;6.73;1.20;;;17.50;99.90;;;;;;5061178;28;20451;-70
2023/08/03 07:30:27;;;;;;;8.60;1.27;;;17.40;99.90;;;;;;5067084;28;21133;-69
2023/08/03 07:33:12;;;;;;;6.93;2.60;;;17.40;99.90;;;;;;5067293;28;20574;-69
2023/08/03 07:35:58;;;;;;;3.60;1.07;;;17.40;99.90;;;;;;5073143;28;20742;-70
2023/08/03 07:38:44;;;;;;;3.37;1.27;;;17.40;99.90;;;;;;5067823;28;20443;-70
2023/08/03 07:41:29;;;;;;;3.57;1.17;;;17.30;99.90;;;;;;5066133;28;20463;-70
2023/08/03 07:44:16;;;;;;;7.07;2.53;;;17.40;99.90;;;;;;5064088;28;20466;-70
2023/08/03 07:47:02;;;;;;;5.03;1.70;;;17.30;99.90;;;;;;5065049;28;20430;-70
2023/08/03 07:49:48;;;;;;;2.33;1.00;;;17.30;99.90;;;;;;5065812;28;20463;-70
2023/08/03 07:52:33;;;;;;;7.20;1.63;;;17.30;99.90;;;;;;5068300;28;20524;-70
2023/08/03 07:55:19;;;;;;;4.00;1.30;;;17.30;99.90;;;;;;5068219;28;20489;-69
2023/08/03 07:58:05;;;;;;;5.80;1.80;;;17.30;99.90;;;;;;5063147;28;20435;-70
2023/08/03 08:00:50;;;;;;;9.77;1.40;;;17.40;99.90;;;;;;5069046;28;20824;-70
2023/08/03 08:03:38;;;;;;;5.77;1.93;;;17.30;99.90;;;;;;5066358;28;20454;-70
2023/08/03 08:06:24;;;;;;;6.40;1.20;;;17.20;99.90;;;;;;5063953;28;20417;-69
2023/08/03 08:09:10;;;;;;;7.87;2.80;;;17.20;99.90;;;;;;5063070;28;20421;-71
2023/08/03 08:11:55;;;;;;;5.97;1.60;;;17.30;99.90;;;;;;5062205;28;20814;-70
2023/08/03 08:14:40;;;;;;;6.30;1.47;;;17.20;99.90;;;;;;5065473;28;20421;-70
2023/08/03 08:17:26;;;;;;;9.60;2.53;;;17.30;99.90;;;;;;5070437;28;20941;-70
2023/08/03 08:20:13;;;;;;;5.53;1.27;;;17.30;99.90;;;;;;5064573;28;20975;-70
2023/08/03 08:22:59;;;;;;;10.20;1.40;;;17.20;99.90;;;;;;5064879;28;20413;-71
2023/08/03 08:25:45;;;;;;;10.63;1.40;;;17.20;99.90;;;;;;5063480;28;20443;-71
2023/08/03 08:28:30;;;;;;;8.87;2.20;;;17.10;99.90;;;;;;5066282;28;20417;-70
2023/08/03 08:31:16;;;;;;;3.97;1.10;;;17.30;99.90;;;;;;5058619;28;20974;-71
2023/08/03 08:34:01;;;;;;;5.53;1.60;;;17.30;99.90;;;;;;5069036;28;20516;-71
2023/08/03 08:36:51;;;;;;;2.80;1.10;;;17.30;99.90;;;;;;5063479;28;20441;-70
2023/08/03 08:39:36;;;;;;;7.43;1.70;;;17.30;99.90;;;;;;5066098;28;20573;-70
2023/08/03 08:42:22;;;;;;;6.37;1.63;;;17.30;99.90;;;;;;5066070;28;20466;-70
2023/08/03 08:45:08;;;;;;;6.30;1.57;;;17.40;99.90;;;;;;5060677;28;20470;-70
2023/08/03 08:47:53;;;;;;;6.00;1.30;;;17.40;99.90;;;;;;5064036;28;20413;-70
2023/08/03 08:50:40;;;;;;;4.73;1.57;;;17.30;99.90;;;;;;5067050;28;20490;-71
2023/08/03 08:53:27;;;;;;;5.00;1.30;;;17.30;99.90;;;;;;5067823;28;20426;-71
2023/08/03 08:56:14;;;;;;;3.70;1.10;;;17.30;99.90;;;;;;5063915;28;20452;-71
2023/08/03 08:59:01;;;;;;;6.37;2.30;;;17.30;99.90;;;;;;5065600;28;20940;-70
2023/08/03 09:01:51;;;;;;;7.50;1.80;;;17.20;99.90;;;;;;5062353;28;20436;-70
2023/08/03 09:04:36;;;;;;;7.63;2.27;;;17.30;99.90;;;;;;5070389;28;20578;-70
2023/08/03 09:07:22;;;;;;;3.60;1.63;;;17.30;99.90;;;;;;5071845;28;20445;-70
2023/08/03 09:10:10;;;;;;;8.20;1.77;;;17.30;99.90;;;;;;5073647;28;20417;-71
2023/08/03 09:12:56;;;;;;;5.77;1.33;;;17.40;99.90;;;;;;5065003;28;20580;-70
2023/08/03 09:15:41;;;;;;;3.23;1.30;;;17.40;99.90;;;;;;5070552;28;20804;-70
2023/08/03 09:18:29;;;;;;;4.30;1.40;;;17.50;99.90;;;;;;5062971;28;20453;-71
2023/08/03 09:21:15;;;;;;;9.70;1.73;;;17.50;99.90;;;;;;5069171;28;20450;-71
2023/08/03 09:24:16;;;;;;;3.00;1.20;;;17.60;99.90;;;;;;5070608;28;20519;-71
2023/08/03 09:27:03;;;;;;;5.63;1.80;;;17.60;99.90;;;;;;5072232;28;20426;-70
2023/08/03 09:29:48;;;;;;;3.63;1.10;;;17.60;99.90;;;;;;5068527;28;20429;-71
2023/08/03 09:32:36;;;;;;;4.33;1.43;;;17.60;99.90;;;;;;5070147;28;20539;-71
2023/08/03 09:35:22;;;;;;;6.70;1.50;;;17.70;99.90;;;;;;5065143;28;20448;-71
2023/08/03 09:38:24;;;;;;;5.87;1.37;;;17.50;99.90;;;;;;5071158;28;20565;-72
2023/08/03 09:41:10;;;;;;;5.90;1.70;;;17.50;99.90;;;;;;5079494;28;20971;-73
2023/08/03 09:43:57;;;;;;;4.67;1.50;;;17.50;99.90;;;;;;5070222;28;20531;-71
2023/08/03 09:46:43;;;;;;;6.63;1.63;;;17.50;99.90;;;;;;5073936;28;20891;-72
2023/08/03 09:49:28;;;;;;;4.30;1.13;;;17.40;99.90;;;;;;5073044;28;20447;-71
2023/08/03 09:52:20;;;;;;;4.47;1.33;;;17.50;99.90;;;;;;5078192;28;20491;-71
2023/08/03 09:55:12;;;;;;;4.70;1.30;;;17.50;99.90;;;;;;5067727;28;20413;-71
2023/08/03 09:58:03;;;;;;;5.23;1.50;;;17.40;99.90;;;;;;5074316;28;20417;-71
2023/08/03 10:00:51;;;;;;;6.00;1.13;;;17.30;99.90;;;;;;5073952;28;20425;-71
2023/08/03 10:03:42;;;;;;;5.10;2.30;;;17.40;99.90;;;;;;5070813;28;20410;-71
2023/08/03 10:06:32;;;;;;;7.10;1.10;;;17.40;99.90;;;;;;5063753;28;20964;-71
2023/08/03 10:09:22;;;;;;;6.00;2.10;;;17.40;99.90;;;;;;5067788;28;20778;-71
2023/08/03 10:12:17;;;;;;;3.63;1.10;;;17.50;99.90;;;;;;5067588;28;20467;-71
2023/08/03 10:15:05;;;;;;;7.53;1.50;;;17.50;99.90;;;;;;5072232;28;20438;-71
2023/08/03 10:17:53;;;;;;;6.80;1.47;;;17.50;99.90;;;;;;5067135;28;20706;-71
2023/08/03 10:20:40;;;;;;;4.20;1.00;;;17.50;99.90;;;;;;5071281;28;20440;-71
2023/08/03 10:23:25;;;;;;;6.47;1.20;;;17.50;99.90;;;;;;5075306;28;20495;-71
2023/08/03 10:26:21;;;;;;;5.37;1.20;;;17.60;99.90;;;;;;5074809;28;20441;-71
2023/08/03 10:29:07;;;;;;;4.20;1.33;;;17.60;99.90;;;;;;5075411;28;20452;-71
2023/08/03 10:31:55;;;;;;;6.67;1.73;;;17.70;99.90;;;;;;5069301;28;20511;-72
2023/08/03 10:34:42;;;;;;;2.57;0.97;;;17.80;99.90;;;;;;5086532;28;20442;-71
2023/08/03 10:37:27;;;;;;;3.97;1.00;;;17.80;99.90;;;;;;5082589;28;20806;-71
2023/08/03 10:40:22;;;;;;;6.63;1.40;;;17.80;99.90;;;;;;5081608;28;20496;-71
2023/08/03 10:43:09;;;;;;;2.87;1.60;;;17.90;99.90;;;;;;5083097;28;20440;-71
2023/08/03 10:45:54;;;;;;;7.03;1.43;;;17.90;99.90;;;;;;5082679;28;20476;-71
2023/08/03 10:48:40;;;;;;;2.67;1.10;;;17.90;99.90;;;;;;5080548;28;20623;-71
2023/08/03 10:51:27;;;;;;;4.43;1.33;;;17.90;99.90;;;;;;5087697;28;20584;-72
2023/08/03 10:54:13;;;;;;;4.17;1.00;;;17.90;99.90;;;;;;5081203;28;20537;-72
2023/08/03 10:57:04;;;;;;;3.47;1.10;;;18.00;99.90;;;;;;5076595;28;20418;-72
2023/08/03 10:59:51;;;;;;;3.40;1.13;;;18.00;99.90;;;;;;5076856;28;20450;-72
2023/08/03 11:02:37;;;;;;;5.30;1.20;;;18.10;99.90;;;;;;5086252;28;20586;-72
2023/08/03 11:05:22;;;;;;;4.33;1.50;;;18.20;99.90;;;;;;5077272;28;20479;-73
2023/08/03 11:08:09;;;;;;;3.20;1.20;;;18.20;99.90;;;;;;5069313;28;20441;-72
2023/08/03 11:10:54;;;;;;;5.67;1.70;;;18.20;99.90;;;;;;5071675;28;20490;-72
2023/08/03 11:13:40;;;;;;;3.23;1.17;;;18.20;99.90;;;;;;5081929;28;20424;-72
2023/08/03 11:16:26;;;;;;;2.97;1.07;;;18.20;99.90;;;;;;5081327;28;20512;-72
2023/08/03 11:19:14;;;;;;;5.43;1.47;;;18.10;99.90;;;;;;5071344;28;20632;-72
2023/08/03 11:22:01;;;;;;;5.90;1.73;;;18.20;99.90;;;;;;5079630;28;20537;-72
2023/08/03 11:24:48;;;;;;;3.27;1.30;;;18.10;99.90;;;;;;5078035;28;20441;-72
2023/08/03 11:27:34;;;;;;;3.43;2.00;;;18.10;99.90;;;;;;5082194;28;20445;-72
2023/08/03 11:30:20;;;;;;;4.13;0.87;;;18.10;99.90;;;;;;5074104;28;20567;-72
2023/08/03 11:33:06;;;;;;;3.73;0.90;;;18.20;99.90;;;;;;5074752;28;20988;-72
2023/08/03 11:35:51;;;;;;;4.40;1.00;;;18.40;99.90;;;;;;5063298;28;21529;-72
2023/08/03 11:38:37;;;;;;;2.40;0.80;;;18.50;99.90;;;;;;5068903;28;20615;-72
2023/08/03 11:41:25;;;;;;;4.20;1.13;;;18.50;99.90;;;;;;5068741;28;20916;-72
2023/08/03 11:44:10;;;;;;;2.10;0.80;;;18.60;99.90;;;;;;5071299;28;20482;-72
2023/08/03 11:47:03;;;;;;;3.10;0.70;;;18.70;99.90;;;;;;5064860;28;22105;-71
2023/08/03 11:49:49;;;;;;;5.23;1.07;;;18.80;99.90;;;;;;5069619;28;20897;-72
2023/08/03 11:52:34;;;;;;;1.43;0.60;;;18.80;99.90;;;;;;5067815;28;20478;-71
2023/08/03 11:55:30;;;;;;;3.40;0.93;;;18.70;99.90;;;;;;5065509;28;20524;-72
2023/08/03 11:58:17;;;;;;;3.07;0.80;;;18.80;99.90;;;;;;5063365;28;20848;-71
2023/08/03 12:01:04;;;;;;;3.50;0.80;;;18.80;99.90;;;;;;5057811;28;20449;-71
2023/08/03 12:03:49;;;;;;;2.83;0.93;;;18.80;99.90;;;;;;5069512;28;20864;-72
2023/08/03 12:06:48;;;;;;;4.40;1.20;;;18.80;99.90;;;;;;5070543;28;20476;-72
2023/08/03 12:09:39;;;;;;;3.00;0.90;;;18.90;99.90;;;;;;5063698;28;20957;-72
2023/08/03 12:12:25;;;;;;;3.10;0.73;;;18.90;99.90;;;;;;5073179;28;20827;-72
2023/08/03 12:15:12;;;;;;;2.40;0.63;;;18.90;99.90;;;;;;5057525;28;20502;-72
2023/08/03 12:17:57;;;;;;;6.20;1.07;;;19.00;99.90;;;;;;5065933;28;20425;-72
2023/08/03 12:20:42;;;;;;;2.40;0.60;;;19.10;99.90;;;;;;5061684;28;20433;-71
2023/08/03 12:23:28;;;;;;;10.03;0.87;;;19.30;99.90;;;;;;5066097;28;20788;-72
2023/08/03 12:26:13;;;;;;;3.93;0.60;;;19.40;99.90;;;;;;5061199;28;20559;-72
2023/08/03 12:29:01;;;;;;;4.20;0.80;;;19.50;99.90;;;;;;5060487;28;20727;-72
2023/08/03 12:31:48;;;;;;;1.87;0.70;;;19.50;99.90;;;;;;5067701;28;20543;-72
2023/08/03 12:34:33;;;;;;;2.07;0.70;;;19.40;99.90;;;;;;5062420;28;20454;-72
2023/08/03 12:37:19;;;;;;;3.30;0.87;;;19.50;99.90;;;;;;5076348;28;20967;-72
2023/08/03 12:40:05;;;;;;;2.37;0.60;;;19.50;99.90;;;;;;5067078;28;20425;-73
2023/08/03 12:42:50;;;;;;;1.50;0.57;;;19.40;99.90;;;;;;5065200;28;20828;-72
2023/08/03 12:45:36;;;;;;;9.07;1.30;;;19.40;99.90;;;;;;5064781;28;20490;-72
2023/08/03 12:48:23;;;;;;;1.93;0.63;;;19.40;99.90;;;;;;5065109;28;20426;-72
2023/08/03 12:51:09;;;;;;;3.47;0.80;;;19.50;99.90;;;;;;5073929;28;20486;-72
2023/08/03 12:53:54;;;;;;;2.60;0.80;;;19.50;99.90;;;;;;5072792;28;20437;-72
2023/08/03 12:56:40;;;;;;;2.33;0.80;;;19.40;99.90;;;;;;5067970;28;20463;-72
2023/08/03 12:59:25;;;;;;;2.33;0.90;;;19.40;99.90;;;;;;5056717;28;20931;-72
2023/08/03 13:02:11;;;;;;;3.20;0.60;;;19.50;99.90;;;;;;5057650;28;20470;-72
2023/08/03 13:04:58;;;;;;;4.43;1.13;;;19.50;99.90;;;;;;5059717;28;20450;-71
2023/08/03 13:07:43;;;;;;;3.00;0.80;;;19.40;99.90;;;;;;5066665;28;20499;-73
2023/08/03 13:10:29;;;;;;;3.47;0.87;;;19.40;99.90;;;;;;5058082;28;20913;-72
2023/08/03 13:13:17;;;;;;;3.87;1.07;;;19.40;99.90;;;;;;5068635;28;20525;-73
2023/08/03 13:16:05;;;;;;;3.07;0.77;;;19.40;99.90;;;;;;5068113;28;20570;-73
2023/08/03 13:18:50;;;;;;;2.03;0.77;;;19.40;99.90;;;;;;5061456;28;20423;-73
2023/08/03 13:21:37;;;;;;;3.77;0.87;;;19.40;99.90;;;;;;5057670;28;20450;-72
2023/08/03 13:24:23;;;;;;;6.73;1.07;;;19.40;99.90;;;;;;5062045;28;20422;-72
2023/08/03 13:27:13;;;;;;;3.00;1.10;;;19.40;99.90;;;;;;5063632;28;20896;-72
2023/08/03 13:29:58;;;;;;;1.40;0.60;;;19.40;99.90;;;;;;5063718;28;20498;-70
2023/08/03 13:32:44;;;;;;;2.90;0.70;;;19.40;99.90;;;;;;5054666;28;20459;-71
2023/08/03 13:35:30;;;;;;;1.40;0.53;;;19.40;99.90;;;;;;5069977;28;20458;-71
2023/08/03 13:38:17;;;;;;;8.80;1.00;;;19.30;99.90;;;;;;5064647;28;20420;-70
2023/08/03 13:41:03;;;;;;;1.63;0.60;;;19.30;99.90;;;;;;5067037;28;20446;-71
2023/08/03 13:43:49;;;;;;;2.60;0.93;;;19.30;99.90;;;;;;5056694;28;20503;-71
2023/08/03 13:46:34;;;;;;;2.97;0.70;;;19.30;99.90;;;;;;5061759;28;20995;-71
2023/08/03 13:49:20;;;;;;;3.50;0.90;;;19.20;99.90;;;;;;5057318;28;20482;-71
2023/08/03 13:52:06;;;;;;;5.00;1.83;;;19.20;99.90;;;;;;5026496;28;1047738;-71
2023/08/03 13:54:53;;;;;;;2.27;0.90;;;19.30;99.90;;;;;;5063120;28;20201;-71
2023/08/03 13:57:38;;;;;;;2.93;0.80;;;19.30;99.90;;;;;;5065448;28;20475;-71
2023/08/03 14:00:24;;;;;;;4.00;1.07;;;19.30;99.90;;;;;;5063236;28;20544;-71
2023/08/03 14:03:09;;;;;;;3.57;0.87;;;19.30;99.90;;;;;;5058763;28;20598;-70
2023/08/03 14:05:54;;;;;;;1.93;0.70;;;19.10;99.90;;;;;;5060794;28;21128;-71
2023/08/03 14:08:40;;;;;;;3.83;1.23;;;19.10;99.90;;;;;;5070156;28;20451;-71
2023/08/03 14:11:27;;;;;;;2.43;1.03;;;19.00;99.90;;;;;;5063367;28;20462;-70
2023/08/03 14:14:13;;;;;;;2.80;1.10;;;18.90;99.90;;;;;;5052588;28;20453;-71
2023/08/03 14:16:58;;;;;;;2.10;1.00;;;18.90;99.90;;;;;;5058360;28;20422;-70
2023/08/03 14:19:44;;;;;;;4.30;1.27;;;18.80;99.90;;;;;;5062907;28;20422;-71
2023/08/03 14:22:29;;;;;;;3.93;1.20;;;18.60;99.90;;;;;;5063318;28;20468;-70
2023/08/03 14:25:16;;;;;;;2.50;1.00;;;18.50;99.90;;;;;;5061352;28;20447;-71